Time;durP1;ratioP1;P1;durP2;ratioP2;P2;SDS_P1;SDS_P2;PMS_P1;PMS_P2;Temp;Humidity;BMP_temperature;BMP_pressure;BME280_temperature;BME280_humidity;BME280_pressure;Samples;Min_cycle;Max_cycle;Signal;HPM_P1;HPM_P2
2022/09/09 00:00:47;;;;;;;6.93;3.22;;;14.20;99.90;;;;;;4982271;28;20114;-84
2022/09/09 00:03:16;;;;;;;5.85;2.92;;;14.20;99.90;;;;;;4981413;28;20041;-84
2022/09/09 00:06:01;;;;;;;9.18;3.60;;;14.10;99.90;;;;;;4980012;28;20023;-83
2022/09/09 00:08:42;;;;;;;10.75;3.70;;;14.20;99.90;;;;;;4986410;28;20077;-83
2022/09/09 00:11:11;;;;;;;6.00;3.47;;;14.20;99.90;;;;;;5002553;28;20029;-84
2022/09/09 00:13:48;;;;;;;8.25;3.40;;;14.20;99.90;;;;;;5020761;28;20030;-83
2022/09/09 00:16:28;;;;;;;10.93;3.70;;;14.20;99.90;;;;;;5019875;28;20153;-84
2022/09/09 00:19:13;;;;;;;8.02;3.38;;;14.20;99.90;;;;;;5002581;28;20351;-84
2022/09/09 00:22:05;;;;;;;7.93;3.28;;;14.20;99.90;;;;;;5003314;28;20113;-84
2022/09/09 00:25:18;;;;;;;8.63;3.42;;;14.20;99.90;;;;;;4999755;28;20026;-84
2022/09/09 00:27:47;;;;;;;9.88;3.50;;;14.20;99.90;;;;;;5001627;28;20033;-84
2022/09/09 00:30:30;;;;;;;6.25;3.30;;;14.10;99.90;;;;;;5003885;28;20033;-84
2022/09/09 00:33:00;;;;;;;;;;;14.20;99.90;;;;;;5005814;28;20037;-84
2022/09/09 00:35:33;;;;;;;7.28;3.05;;;14.20;99.90;;;;;;5005105;28;19941;-83
2022/09/09 00:38:19;;;;;;;5.82;3.00;;;14.20;99.90;;;;;;5003335;28;20061;-83
2022/09/09 00:41:14;;;;;;;10.38;3.65;;;14.20;99.90;;;;;;5000688;28;20018;-84
2022/09/09 00:43:40;;;;;;;8.15;3.42;;;14.20;99.90;;;;;;5001729;28;20042;-84
2022/09/09 00:46:32;;;;;;;12.13;3.00;;;14.20;99.90;;;;;;5001330;28;20521;-84
2022/09/09 00:49:09;;;;;;;10.30;3.00;;;14.30;99.90;;;;;;5002495;28;20034;-84
2022/09/09 00:52:06;;;;;;;9.82;2.65;;;14.30;99.90;;;;;;5001696;28;20062;-83
2022/09/09 00:54:35;;;;;;;10.27;3.00;;;14.30;99.90;;;;;;5000807;28;20030;-84
2022/09/09 00:57:23;;;;;;;6.15;2.40;;;14.30;99.90;;;;;;5019297;28;20026;-83
2022/09/09 00:59:57;;;;;;;8.57;2.15;;;14.30;99.90;;;;;;5001350;28;20014;-84
2022/09/09 01:02:58;;;;;;;8.32;2.45;;;14.40;99.90;;;;;;5002087;28;20038;-83
2022/09/09 01:05:46;;;;;;;5.32;2.40;;;14.40;99.90;;;;;;4993687;28;20040;-84
2022/09/09 01:08:33;;;;;;;10.00;2.42;;;14.40;99.90;;;;;;5001043;28;20030;-84
2022/09/09 01:10:59;;;;;;;6.47;2.28;;;14.30;99.90;;;;;;5002495;28;20036;-84
2022/09/09 01:13:31;;;;;;;9.55;2.15;;;14.30;99.90;;;;;;5002027;28;20026;-84
2022/09/09 01:16:05;;;;;;;7.30;1.88;;;14.30;99.90;;;;;;5019840;28;20064;-84
2022/09/09 01:18:40;;;;;;;7.07;2.08;;;14.30;99.90;;;;;;5002343;28;20030;-84
2022/09/09 01:21:27;;;;;;;7.38;2.25;;;14.30;99.90;;;;;;5002292;28;20048;-84
2022/09/09 01:24:38;;;;;;;7.13;2.00;;;14.30;99.90;;;;;;5002302;28;20049;-84
2022/09/09 01:27:06;;;;;;;6.30;2.33;;;14.30;99.90;;;;;;4976792;28;20030;-83
2022/09/09 01:29:32;;;;;;;11.82;2.35;;;14.30;99.90;;;;;;4996645;28;20079;-83
2022/09/09 01:32:23;;;;;;;9.32;2.35;;;14.30;99.90;;;;;;5017989;28;20538;-84
2022/09/09 01:34:50;;;;;;;7.57;2.20;;;14.30;99.90;;;;;;5000426;28;20025;-83
2022/09/09 01:37:15;;;;;;;7.80;2.20;;;14.20;99.90;;;;;;5000307;28;20137;-84
2022/09/09 01:39:44;;;;;;;8.80;2.35;;;14.20;99.90;;;;;;5018210;28;20068;-83
2022/09/09 01:42:13;;;;;;;5.18;1.95;;;14.20;99.90;;;;;;5000473;28;20505;-83
2022/09/09 01:44:39;;;;;;;6.22;2.00;;;14.20;99.90;;;;;;5000277;28;20029;-83
2022/09/09 01:47:06;;;;;;;9.65;2.60;;;14.20;99.90;;;;;;5000249;28;20510;-83
2022/09/09 01:49:32;;;;;;;9.45;2.17;;;14.20;99.90;;;;;;5002281;28;20079;-83
2022/09/09 01:51:59;;;;;;;10.70;2.60;;;14.20;99.90;;;;;;5001394;28;20034;-84
2022/09/09 01:54:29;;;;;;;6.78;2.60;;;14.20;99.90;;;;;;5018239;28;20057;-84
2022/09/09 01:57:17;;;;;;;5.15;1.83;;;14.20;99.90;;;;;;5018594;28;20062;-84
2022/09/09 02:00:06;;;;;;;9.52;2.40;;;14.30;99.90;;;;;;4999924;28;20026;-83
2022/09/09 02:02:44;;;;;;;6.45;2.63;;;14.30;99.90;;;;;;5017464;28;20044;-83
2022/09/09 02:05:26;;;;;;;8.90;2.72;;;14.30;99.90;;;;;;4999714;28;20120;-84
2022/09/09 02:08:03;;;;;;;10.80;2.83;;;14.40;99.90;;;;;;4999782;28;20494;-83
2022/09/09 02:10:43;;;;;;;11.40;2.97;;;14.30;99.90;;;;;;4978710;28;20058;-83
2022/09/09 02:13:12;;;;;;;10.38;2.83;;;14.30;99.90;;;;;;4978342;28;20063;-84
2022/09/09 02:15:47;;;;;;;10.98;2.58;;;14.30;99.90;;;;;;4977362;28;20087;-84
2022/09/09 02:18:17;;;;;;;10.93;2.92;;;14.30;99.90;;;;;;4978620;28;20027;-84
2022/09/09 02:20:45;;;;;;;8.57;2.60;;;14.40;99.90;;;;;;4977521;28;20170;-84
2022/09/09 02:23:12;;;;;;;12.07;2.55;;;14.30;99.90;;;;;;4978129;28;20027;-84
2022/09/09 02:25:40;;;;;;;11.00;3.28;;;14.30;99.90;;;;;;4979029;28;20113;-84
2022/09/09 02:28:09;;;;;;;9.60;2.95;;;14.30;99.90;;;;;;4980286;28;20050;-84
2022/09/09 02:30:37;;;;;;;9.57;2.72;;;14.40;99.90;;;;;;4977845;28;20033;-84
2022/09/09 02:33:06;;;;;;;12.68;3.20;;;14.40;99.90;;;;;;4976889;28;20062;-84
2022/09/09 02:35:37;;;;;;;10.73;3.38;;;14.40;99.90;;;;;;4977806;28;20464;-84
2022/09/09 02:38:06;;;;;;;7.03;2.85;;;14.40;99.90;;;;;;4977251;28;20038;-84
2022/09/09 02:40:32;;;;;;;9.07;2.72;;;14.50;99.90;;;;;;4977448;28;20035;-84
2022/09/09 02:42:59;;;;;;;11.43;3.15;;;14.50;99.90;;;;;;4976687;28;20043;-84
2022/09/09 02:45:31;;;;;;;11.15;3.58;;;14.50;99.90;;;;;;4978195;28;20027;-83
2022/09/09 02:48:31;;;;;;;13.55;3.58;;;14.50;99.90;;;;;;4977380;28;20031;-83
2022/09/09 02:51:10;;;;;;;13.98;3.35;;;14.50;99.90;;;;;;4975853;28;20030;-83
2022/09/09 02:53:44;;;;;;;13.30;3.80;;;14.50;99.90;;;;;;4976070;28;20502;-83
2022/09/09 02:56:16;;;;;;;13.52;3.10;;;14.60;99.90;;;;;;4975126;28;20042;-83
2022/09/09 02:58:42;;;;;;;7.63;2.67;;;14.50;99.90;;;;;;4976973;28;20061;-83
2022/09/09 03:01:08;;;;;;;14.27;3.17;;;14.60;99.90;;;;;;4977322;28;20031;-83
2022/09/09 03:03:34;;;;;;;14.50;3.03;;;14.60;99.90;;;;;;4976948;28;20023;-83
2022/09/09 03:06:00;;;;;;;13.15;3.40;;;14.60;99.90;;;;;;4978682;28;20105;-84
2022/09/09 03:08:27;;;;;;;9.32;2.55;;;14.60;99.90;;;;;;4982772;28;20031;-83
2022/09/09 03:10:54;;;;;;;13.55;3.10;;;14.70;99.90;;;;;;5000346;28;20036;-84
2022/09/09 03:13:20;;;;;;;11.45;2.60;;;14.70;99.90;;;;;;5000879;28;20033;-83
2022/09/09 03:15:48;;;;;;;11.55;2.85;;;14.70;99.90;;;;;;4999834;28;20014;-82
2022/09/09 03:18:14;;;;;;;11.90;2.80;;;14.70;99.90;;;;;;5017873;28;20022;-83
2022/09/09 03:20:41;;;;;;;14.48;2.50;;;14.80;99.90;;;;;;4999715;28;20493;-83
2022/09/09 03:23:07;;;;;;;13.45;2.83;;;14.80;99.90;;;;;;5000119;28;20037;-83
2022/09/09 03:25:33;;;;;;;16.60;3.00;;;14.80;99.90;;;;;;4999863;28;20482;-83
2022/09/09 03:27:59;;;;;;;13.10;2.65;;;14.80;99.90;;;;;;4999144;28;20045;-83
2022/09/09 03:30:26;;;;;;;13.25;2.95;;;14.80;99.90;;;;;;4998259;28;20124;-83
2022/09/09 03:32:52;;;;;;;12.48;2.63;;;14.90;99.90;;;;;;4998997;28;20034;-83
2022/09/09 03:35:19;;;;;;;10.73;2.35;;;14.90;99.90;;;;;;4999275;28;20356;-84
2022/09/09 03:37:45;;;;;;;12.23;2.88;;;15.00;99.90;;;;;;4999872;28;20061;-83
2022/09/09 03:40:11;;;;;;;13.90;2.63;;;15.00;99.90;;;;;;4999613;28;20022;-83
2022/09/09 03:42:38;;;;;;;12.63;2.33;;;15.10;99.90;;;;;;4999924;28;20098;-84
2022/09/09 03:45:05;;;;;;;14.07;2.28;;;15.10;99.90;;;;;;4999744;28;20034;-83
2022/09/09 03:47:31;;;;;;;11.88;2.50;;;15.10;99.90;;;;;;4998481;28;20030;-83
2022/09/09 03:49:56;;;;;;;10.85;2.42;;;15.10;99.90;;;;;;4998560;28;20034;-83
2022/09/09 03:52:24;;;;;;;16.33;3.13;;;15.10;99.90;;;;;;4998299;28;20403;-83
2022/09/09 03:54:51;;;;;;;12.48;2.97;;;15.20;99.90;;;;;;4998739;28;20026;-83
2022/09/09 03:57:17;;;;;;;20.83;2.85;;;15.10;99.90;;;;;;4998691;28;20030;-83
2022/09/09 03:59:43;;;;;;;10.00;2.72;;;15.10;99.90;;;;;;5015600;28;20227;-83
2022/09/09 04:02:09;;;;;;;12.55;2.55;;;15.10;99.90;;;;;;4997470;28;20041;-83
2022/09/09 04:04:34;;;;;;;11.82;2.70;;;15.10;99.90;;;;;;5000657;28;20025;-83
2022/09/09 04:07:00;;;;;;;13.65;3.28;;;15.10;99.90;;;;;;5001444;28;20124;-83
2022/09/09 04:09:26;;;;;;;15.88;3.00;;;15.00;99.90;;;;;;5001557;28;20105;-83
2022/09/09 04:11:52;;;;;;;14.38;3.20;;;15.10;99.90;;;;;;5000828;28;20560;-82
2022/09/09 04:14:19;;;;;;;11.82;2.80;;;15.10;99.90;;;;;;5001094;28;20030;-83
2022/09/09 04:16:44;;;;;;;10.85;2.63;;;15.10;99.90;;;;;;5021719;28;20052;-84
2022/09/09 04:19:13;;;;;;;8.95;2.70;;;15.20;99.90;;;;;;5009401;28;20093;-84
2022/09/09 04:21:42;;;;;;;12.73;2.95;;;15.20;99.90;;;;;;5010142;28;20034;-84
2022/09/09 04:24:08;;;;;;;15.75;2.72;;;15.20;99.90;;;;;;5027482;28;20056;-84
2022/09/09 04:26:36;;;;;;;10.43;2.45;;;15.20;99.90;;;;;;5009344;28;20489;-85
2022/09/09 04:29:02;;;;;;;11.48;2.33;;;15.20;99.90;;;;;;5010110;28;20427;-85
2022/09/09 04:31:30;;;;;;;15.40;3.45;;;15.20;99.90;;;;;;5008580;28;20034;-85
2022/09/09 04:33:56;;;;;;;10.30;2.40;;;15.20;99.90;;;;;;5023295;28;20057;-83
2022/09/09 04:36:22;;;;;;;15.40;2.90;;;15.30;99.90;;;;;;5003552;28;20026;-84
2022/09/09 04:38:48;;;;;;;11.30;3.20;;;15.30;99.90;;;;;;5003405;28;20029;-83
2022/09/09 04:41:16;;;;;;;10.75;3.05;;;15.20;99.90;;;;;;5002936;28;20026;-83
2022/09/09 04:43:42;;;;;;;16.48;2.80;;;15.20;99.90;;;;;;5004691;28;20029;-84
2022/09/09 04:46:08;;;;;;;17.23;3.22;;;15.20;99.90;;;;;;5002824;28;20115;-83
2022/09/09 04:48:34;;;;;;;12.80;2.70;;;15.20;99.90;;;;;;5004150;28;20030;-83
2022/09/09 04:51:05;;;;;;;13.90;2.90;;;15.20;99.90;;;;;;5003492;28;20025;-83
2022/09/09 04:53:31;;;;;;;12.32;2.65;;;15.20;99.90;;;;;;5001306;28;20025;-84
2022/09/09 04:56:04;;;;;;;11.73;2.60;;;15.20;99.90;;;;;;5001487;28;20022;-83
2022/09/09 04:58:29;;;;;;;14.02;3.15;;;15.20;99.90;;;;;;5001836;28;20072;-83
2022/09/09 05:01:02;;;;;;;13.30;2.55;;;15.20;99.90;;;;;;5001351;28;20386;-83
2022/09/09 05:03:28;;;;;;;14.35;3.22;;;15.20;99.90;;;;;;5000599;28;20064;-83
2022/09/09 05:05:54;;;;;;;16.15;3.03;;;15.30;99.90;;;;;;5018577;28;20032;-83
2022/09/09 05:08:20;;;;;;;12.77;2.47;;;15.30;99.90;;;;;;5002684;28;20033;-83
2022/09/09 05:10:46;;;;;;;15.65;2.72;;;15.30;99.90;;;;;;5002332;28;20068;-83
2022/09/09 05:13:11;;;;;;;14.48;3.13;;;15.30;99.90;;;;;;5002383;28;20038;-84
2022/09/09 05:15:37;;;;;;;15.18;2.85;;;15.30;99.90;;;;;;5003658;28;20467;-83
2022/09/09 05:18:03;;;;;;;13.93;2.63;;;15.40;99.90;;;;;;5022215;28;20029;-84
2022/09/09 05:20:29;;;;;;;11.73;2.70;;;15.20;99.90;;;;;;5004323;28;20406;-84
2022/09/09 05:22:56;;;;;;;19.10;3.00;;;15.10;99.90;;;;;;5001591;28;20026;-83
2022/09/09 05:25:24;;;;;;;14.73;2.92;;;15.00;99.90;;;;;;5020517;28;20033;-84
2022/09/09 05:27:49;;;;;;;15.60;3.45;;;14.90;99.90;;;;;;5004047;28;20049;-83
2022/09/09 05:30:16;;;;;;;17.27;3.10;;;14.90;99.90;;;;;;4999721;28;20038;-84
2022/09/09 05:32:43;;;;;;;14.32;2.85;;;14.90;99.90;;;;;;4999615;28;20121;-83
2022/09/09 05:35:08;;;;;;;15.73;3.92;;;14.90;99.90;;;;;;5000299;28;20030;-84
2022/09/09 05:37:34;;;;;;;12.63;3.10;;;14.90;99.90;;;;;;5001308;28;20475;-83
2022/09/09 05:40:01;;;;;;;18.83;3.10;;;14.90;99.90;;;;;;4998794;28;20022;-83
2022/09/09 05:42:30;;;;;;;14.18;2.75;;;15.00;99.90;;;;;;4988148;28;20030;-83
2022/09/09 05:44:57;;;;;;;23.85;3.47;;;15.10;99.90;;;;;;4976484;28;20444;-83
2022/09/09 05:47:23;;;;;;;13.77;3.30;;;15.10;99.90;;;;;;4980819;28;20518;-83
2022/09/09 05:49:49;;;;;;;16.58;2.85;;;15.10;99.90;;;;;;4979436;28;20042;-83
2022/09/09 05:52:15;;;;;;;16.58;3.67;;;15.20;99.90;;;;;;4995611;28;20026;-83
2022/09/09 05:54:41;;;;;;;14.07;3.08;;;15.20;99.90;;;;;;4977386;28;20041;-83
2022/09/09 05:57:07;;;;;;;15.20;3.50;;;15.30;99.90;;;;;;4995370;28;20026;-83
2022/09/09 05:59:32;;;;;;;13.75;2.95;;;15.30;99.90;;;;;;4974679;28;20081;-83
2022/09/09 06:01:58;;;;;;;16.58;2.97;;;15.40;99.90;;;;;;4984694;28;20452;-84
2022/09/09 06:04:24;;;;;;;11.73;2.67;;;15.40;99.90;;;;;;4972439;28;20037;-84
2022/09/09 06:06:50;;;;;;;12.77;2.70;;;15.40;99.90;;;;;;4974197;28;20090;-82
2022/09/09 06:09:16;;;;;;;14.35;2.63;;;15.50;99.90;;;;;;4970981;28;20090;-82
2022/09/09 06:11:43;;;;;;;9.38;2.50;;;15.50;99.90;;;;;;4966504;29;20047;-83
2022/09/09 06:14:09;;;;;;;11.77;2.83;;;15.40;99.90;;;;;;4960244;28;20023;-83
2022/09/09 06:16:37;;;;;;;13.13;2.50;;;15.50;99.90;;;;;;4952419;28;20090;-84
2022/09/09 06:19:03;;;;;;;10.73;1.90;;;15.50;99.90;;;;;;4945657;28;20035;-84
2022/09/09 06:21:36;;;;;;;11.38;2.15;;;15.50;99.90;;;;;;4946962;28;20097;-84
2022/09/09 06:24:03;;;;;;;15.93;2.38;;;15.60;99.90;;;;;;4948769;28;20034;-86
2022/09/09 06:26:42;;;;;;;10.23;2.42;;;15.60;99.90;;;;;;4949369;28;20034;-86
2022/09/09 06:29:09;;;;;;;10.88;2.25;;;15.60;99.90;;;;;;4946852;28;20035;-85
2022/09/09 06:31:36;;;;;;;13.95;2.95;;;15.70;99.90;;;;;;4948354;28;20023;-86
2022/09/09 06:34:25;;;;;;;13.80;2.10;;;15.60;99.90;;;;;;4946392;29;20034;-92
2022/09/09 06:36:51;;;;;;;12.60;2.90;;;15.70;99.90;;;;;;4960633;28;20038;-81
2022/09/09 06:39:17;;;;;;;10.60;2.80;;;15.70;99.90;;;;;;4937733;28;20027;-82
2022/09/09 06:41:43;;;;;;;15.00;2.88;;;15.70;99.90;;;;;;4940850;28;20039;-81
2022/09/09 06:44:08;;;;;;;11.68;2.22;;;15.70;99.90;;;;;;4959790;28;20039;-81
2022/09/09 06:46:35;;;;;;;12.13;2.38;;;15.90;99.90;;;;;;4938464;28;20035;-81
2022/09/09 06:49:02;;;;;;;14.50;2.05;;;15.80;99.90;;;;;;4937643;28;20090;-81
2022/09/09 06:51:30;;;;;;;8.40;2.22;;;16.00;99.90;;;;;;4938634;28;20595;-81
2022/09/09 06:53:58;;;;;;;13.93;2.75;;;16.00;99.90;;;;;;4936279;28;20047;-81
2022/09/09 06:56:35;;;;;;;17.60;2.95;;;16.00;99.90;;;;;;4944456;28;20039;-81
2022/09/09 06:59:03;;;;;;;10.88;2.40;;;15.90;99.90;;;;;;4947239;28;20098;-81
2022/09/09 07:01:34;;;;;;;11.82;2.42;;;15.80;99.90;;;;;;4947237;28;20109;-81
2022/09/09 07:04:00;;;;;;;17.98;2.47;;;15.80;99.90;;;;;;4947078;28;20027;-84
2022/09/09 07:06:28;;;;;;;12.05;2.80;;;15.80;99.90;;;;;;4944870;28;20118;-84
2022/09/09 07:08:57;;;;;;;17.10;2.38;;;15.90;99.90;;;;;;4945186;28;20047;-84
2022/09/09 07:11:28;;;;;;;12.68;2.55;;;15.80;99.90;;;;;;4947375;29;20543;-84
2022/09/09 07:13:54;;;;;;;13.80;2.95;;;15.60;99.90;;;;;;4944174;28;20030;-84
2022/09/09 07:16:24;;;;;;;11.82;2.72;;;15.40;99.90;;;;;;4947173;28;20039;-82
2022/09/09 07:18:50;;;;;;;11.70;2.85;;;15.30;99.90;;;;;;4940567;28;20235;-81
2022/09/09 07:21:17;;;;;;;14.68;3.05;;;15.30;99.90;;;;;;4940127;28;20348;-81
2022/09/09 07:23:43;;;;;;;10.07;2.10;;;15.30;99.90;;;;;;4952443;28;20449;-81
2022/09/09 07:26:14;;;;;;;10.27;2.50;;;15.30;99.90;;;;;;4938628;28;20062;-82
2022/09/09 07:28:41;;;;;;;11.70;2.78;;;15.40;99.90;;;;;;4936214;28;20122;-81
2022/09/09 07:31:13;;;;;;;12.77;3.30;;;15.50;99.90;;;;;;4937864;28;20110;-82
2022/09/09 07:33:40;;;;;;;13.13;2.42;;;15.50;99.90;;;;;;4940864;28;20070;-82
2022/09/09 07:36:30;;;;;;;12.98;2.80;;;15.50;99.90;;;;;;4938457;28;20114;-81
2022/09/09 07:38:59;;;;;;;7.30;2.00;;;15.60;99.90;;;;;;4937818;28;20047;-81
2022/09/09 07:41:27;;;;;;;7.55;1.88;;;15.70;99.90;;;;;;4949994;28;20169;-81
2022/09/09 07:43:54;;;;;;;6.82;1.98;;;15.90;99.90;;;;;;4947916;28;20031;-81
2022/09/09 07:46:23;;;;;;;11.05;2.20;;;15.90;99.90;;;;;;4975556;28;20055;-81
2022/09/09 07:48:54;;;;;;;13.10;2.80;;;16.00;99.90;;;;;;4967553;28;20014;-81
2022/09/09 07:51:23;;;;;;;11.50;2.50;;;16.00;99.90;;;;;;4964151;29;20027;-82
2022/09/09 07:53:52;;;;;;;10.25;2.42;;;16.00;99.90;;;;;;4964939;28;20099;-84
2022/09/09 07:56:19;;;;;;;10.18;2.38;;;16.10;99.90;;;;;;4966581;28;20081;-83
2022/09/09 07:58:46;;;;;;;11.82;2.78;;;16.10;99.90;;;;;;4964576;28;20024;-83
2022/09/09 08:01:16;;;;;;;8.60;2.05;;;16.10;99.90;;;;;;4965599;28;20046;-84
2022/09/09 08:03:44;;;;;;;11.57;2.88;;;16.10;99.90;;;;;;4964552;28;20030;-83
2022/09/09 08:06:11;;;;;;;11.45;2.78;;;16.20;99.90;;;;;;4959885;28;20058;-84
2022/09/09 08:08:38;;;;;;;8.25;1.75;;;16.20;99.90;;;;;;4964258;28;20050;-83
2022/09/09 08:11:15;;;;;;;8.50;2.33;;;16.10;99.90;;;;;;4960685;28;20042;-83
2022/09/09 08:13:42;;;;;;;12.00;2.38;;;16.00;99.90;;;;;;4961506;28;20035;-83
2022/09/09 08:16:23;;;;;;;12.30;2.58;;;15.90;99.90;;;;;;4978009;28;20022;-83
2022/09/09 08:18:50;;;;;;;9.80;2.47;;;15.90;99.90;;;;;;4962035;28;20051;-86
2022/09/09 08:21:18;;;;;;;12.20;2.60;;;15.90;99.90;;;;;;4964602;29;20118;-86
2022/09/09 08:23:47;;;;;;;9.60;2.60;;;15.80;99.90;;;;;;4951935;28;20077;-87
2022/09/09 08:26:16;;;;;;;12.95;2.50;;;15.80;99.90;;;;;;4950394;29;20035;-85
2022/09/09 08:28:43;;;;;;;8.32;1.63;;;15.90;99.90;;;;;;4944798;28;20024;-85
2022/09/09 08:31:34;;;;;;;7.75;2.25;;;15.90;99.90;;;;;;4944261;28;20035;-91
2022/09/09 08:34:03;;;;;;;8.63;2.22;;;15.90;99.90;;;;;;4945179;28;20054;-83
2022/09/09 08:36:33;;;;;;;10.05;2.17;;;15.90;99.90;;;;;;4944937;28;20059;-83
2022/09/09 08:38:59;;;;;;;9.85;1.80;;;15.90;99.90;;;;;;4945330;28;20067;-83
2022/09/09 08:41:41;;;;;;;10.38;2.33;;;15.90;99.90;;;;;;4953050;29;20130;-83
2022/09/09 08:44:42;;;;;;;9.85;2.65;;;16.00;99.90;;;;;;4948772;28;20492;-83
2022/09/09 08:47:40;;;;;;;4.88;1.52;;;16.00;99.90;;;;;;4961179;28;20512;-83
2022/09/09 08:50:15;;;;;;;12.32;2.35;;;16.10;99.90;;;;;;4947693;28;20548;-83
2022/09/09 08:52:40;;;;;;;10.60;2.15;;;16.00;99.90;;;;;;4965139;28;20178;-84
2022/09/09 08:55:44;;;;;;;12.55;2.85;;;16.10;99.90;;;;;;4948218;28;20123;-83
2022/09/09 08:58:15;;;;;;;10.40;2.53;;;16.10;99.90;;;;;;4937204;28;20032;-83
2022/09/09 09:00:54;;;;;;;16.58;3.30;;;16.10;99.90;;;;;;4943279;28;20038;-83
2022/09/09 09:03:28;;;;;;;10.27;2.47;;;16.10;99.90;;;;;;4959759;28;20042;-84
2022/09/09 09:06:07;;;;;;;10.38;2.70;;;16.10;99.90;;;;;;4946660;29;20067;-83
2022/09/09 09:08:53;;;;;;;9.18;2.30;;;16.10;99.90;;;;;;4948129;28;20161;-82
2022/09/09 09:11:18;;;;;;;7.13;2.22;;;16.20;99.90;;;;;;4962918;28;20165;-83
2022/09/09 09:14:07;;;;;;;10.77;2.47;;;16.20;99.90;;;;;;4978481;28;20034;-83
2022/09/09 09:16:36;;;;;;;15.20;2.35;;;16.20;99.90;;;;;;4980596;28;20061;-82
2022/09/09 09:19:02;;;;;;;11.10;2.70;;;16.10;99.90;;;;;;4967991;28;20018;-82
2022/09/09 09:21:44;;;;;;;9.30;2.65;;;16.10;99.90;;;;;;4982701;28;20034;-82
2022/09/09 09:24:34;;;;;;;8.02;2.20;;;16.10;99.90;;;;;;4963029;28;20031;-82
2022/09/09 09:27:12;;;;;;;8.65;2.10;;;16.10;99.90;;;;;;4985959;28;20048;-82
2022/09/09 09:29:39;;;;;;;14.30;3.10;;;16.10;99.90;;;;;;4963584;28;20608;-82
2022/09/09 09:32:09;;;;;;;8.50;2.38;;;16.10;99.90;;;;;;4964402;28;20458;-82
2022/09/09 09:34:35;;;;;;;11.68;2.67;;;16.10;99.90;;;;;;4964689;28;20493;-83
2022/09/09 09:37:01;;;;;;;7.05;2.45;;;16.20;99.90;;;;;;4983605;28;20042;-85
2022/09/09 09:39:30;;;;;;;8.20;2.28;;;16.20;99.90;;;;;;4965648;28;20034;-83
2022/09/09 09:41:57;;;;;;;7.68;2.47;;;16.30;99.90;;;;;;4981537;28;20069;-82
2022/09/09 09:44:28;;;;;;;9.20;2.65;;;16.30;99.90;;;;;;4964007;28;20073;-85
2022/09/09 09:47:26;;;;;;;13.43;2.63;;;16.50;99.90;;;;;;4972569;28;20547;-83
2022/09/09 09:50:01;;;;;;;11.35;2.42;;;16.70;99.90;;;;;;4979596;28;20056;-84
2022/09/09 09:52:30;;;;;;;10.77;2.35;;;16.70;99.90;;;;;;4966486;28;20509;-84
2022/09/09 09:54:57;;;;;;;8.38;2.13;;;16.80;99.90;;;;;;4965860;28;20034;-83
2022/09/09 09:57:31;;;;;;;7.47;1.77;;;16.90;99.90;;;;;;4960288;28;20446;-83
2022/09/09 10:00:14;;;;;;;5.63;1.67;;;17.00;99.90;;;;;;4962590;28;20442;-85
2022/09/09 10:02:43;;;;;;;7.55;1.67;;;17.10;99.90;;;;;;4976030;28;20031;-84
2022/09/09 10:05:18;;;;;;;8.75;2.10;;;17.40;99.90;;;;;;4961879;28;20202;-86
2022/09/09 10:07:45;;;;;;;5.05;1.60;;;17.50;99.90;;;;;;4969011;28;20137;-85
2022/09/09 10:10:26;;;;;;;6.13;1.77;;;17.50;99.90;;;;;;4962166;28;20494;-83
2022/09/09 10:13:06;;;;;;;6.28;1.58;;;17.40;99.90;;;;;;4960464;28;20038;-84
2022/09/09 10:15:41;;;;;;;4.97;1.60;;;17.60;99.90;;;;;;4981872;28;20085;-83
2022/09/09 10:18:35;;;;;;;12.32;2.00;;;17.50;99.90;;;;;;4962336;28;21053;-84
2022/09/09 10:21:15;;;;;;;4.50;1.50;;;17.40;99.90;;;;;;4969884;28;20033;-83
2022/09/09 10:24:11;;;;;;;8.65;2.30;;;17.40;99.90;;;;;;4956997;28;20527;-87
2022/09/09 10:27:12;;;;;;;7.95;2.30;;;17.30;99.90;;;;;;4973251;28;20045;-84
2022/09/09 10:29:57;;;;;;;10.50;2.67;;;17.20;99.90;;;;;;4979524;28;20050;-82
2022/09/09 10:32:41;;;;;;;11.82;2.45;;;17.20;99.90;;;;;;4972607;28;20045;-84
2022/09/09 10:35:17;;;;;;;10.18;2.20;;;17.30;99.90;;;;;;4953999;28;20483;-85
2022/09/09 10:37:42;;;;;;;8.13;2.08;;;17.30;99.90;;;;;;4977243;28;20056;-84
2022/09/09 10:40:31;;;;;;;9.95;2.10;;;17.50;99.90;;;;;;4959478;28;20026;-84
2022/09/09 10:43:24;;;;;;;5.25;1.30;;;17.70;99.90;;;;;;4977472;28;20530;-88
2022/09/09 10:46:01;;;;;;;5.72;1.80;;;17.80;99.90;;;;;;4973191;28;20034;-85
2022/09/09 10:48:51;;;;;;;11.00;1.83;;;17.90;99.90;;;;;;4975089;28;20406;-85
2022/09/09 10:51:19;;;;;;;4.28;1.63;;;18.00;99.90;;;;;;4980269;28;20668;-85
2022/09/09 10:54:13;;;;;;;8.70;1.30;;;18.10;99.90;;;;;;4966288;28;20121;-84
2022/09/09 10:56:40;;;;;;;7.70;1.52;;;18.00;99.90;;;;;;4976129;28;20023;-85
2022/09/09 10:59:13;;;;;;;6.75;1.45;;;18.10;99.90;;;;;;4981162;28;20546;-83
2022/09/09 11:01:49;;;;;;;5.93;1.65;;;18.10;99.90;;;;;;4959651;28;20034;-83
2022/09/09 11:04:26;;;;;;;6.03;1.50;;;18.10;99.90;;;;;;4954705;28;20141;-83
2022/09/09 11:06:55;;;;;;;4.70;1.40;;;18.30;99.90;;;;;;4976388;28;20041;-85
2022/09/09 11:09:30;;;;;;;5.00;1.00;;;18.40;99.90;;;;;;4943066;28;20441;-91
2022/09/09 11:11:57;;;;;;;4.25;1.08;;;18.50;99.90;;;;;;4951742;28;20058;-84
2022/09/09 11:14:37;;;;;;;4.47;1.10;;;18.30;99.90;;;;;;4936451;28;20035;-83
2022/09/09 11:17:31;;;;;;;5.93;1.05;;;18.30;99.90;;;;;;4933942;28;20285;-83
2022/09/09 11:19:57;;;;;;;6.80;1.52;;;18.10;99.90;;;;;;4946769;28;20031;-83
2022/09/09 11:22:40;;;;;;;3.05;1.10;;;17.90;99.90;;;;;;4941905;28;20046;-84
2022/09/09 11:25:43;;;;;;;6.45;1.60;;;17.70;99.90;;;;;;4941464;28;20063;-83
2022/09/09 11:28:22;;;;;;;6.55;1.75;;;17.80;99.90;;;;;;4957802;28;20595;-84
2022/09/09 11:31:11;;;;;;;4.35;1.45;;;17.80;99.90;;;;;;4936601;29;20038;-83
2022/09/09 11:34:05;;;;;;;6.00;1.65;;;17.80;99.90;;;;;;4956136;28;20035;-84
2022/09/09 11:36:37;;;;;;;3.08;1.30;;;17.80;99.90;;;;;;4939515;28;20023;-84
2022/09/09 11:39:16;;;;;;;6.47;1.80;;;17.90;99.90;;;;;;4940861;29;20503;-84
2022/09/09 11:41:42;;;;;;;5.95;1.30;;;17.80;99.90;;;;;;4938070;29;20047;-83
2022/09/09 11:44:16;;;;;;;6.70;2.10;;;17.70;99.90;;;;;;4936384;29;20046;-83
2022/09/09 11:46:43;;;;;;;5.90;1.98;;;17.60;99.90;;;;;;4937516;29;20337;-83
2022/09/09 11:49:41;;;;;;;6.45;1.50;;;17.90;99.90;;;;;;4936985;28;20063;-83
2022/09/09 11:52:43;;;;;;;5.22;1.75;;;18.00;99.90;;;;;;4939280;29;20027;-84
2022/09/09 11:55:34;;;;;;;4.40;1.65;;;18.00;99.90;;;;;;4935471;29;20032;-85
2022/09/09 11:58:25;;;;;;;6.95;1.73;;;18.30;99.90;;;;;;4940831;28;20035;-90
2022/09/09 12:00:52;;;;;;;6.20;1.50;;;18.60;99.90;;;;;;4939141;29;20031;-83
2022/09/09 12:03:35;;;;;;;4.30;1.10;;;18.50;99.90;;;;;;4939239;28;20035;-85
2022/09/09 12:06:13;;;;;;;5.47;1.55;;;18.40;99.90;;;;;;4934791;28;20039;-86
2022/09/09 12:08:42;;;;;;;4.78;1.98;;;18.60;99.90;;;;;;4951939;28;20122;-85
2022/09/09 12:11:08;;;;;;;3.72;1.33;;;18.90;99.90;;;;;;4940523;29;20035;-83
2022/09/09 12:13:36;;;;;;;4.68;1.40;;;19.40;99.90;;;;;;4949926;28;20046;-85
2022/09/09 12:16:05;;;;;;;4.20;1.63;;;19.50;99.90;;;;;;4940685;28;20031;-91
2022/09/09 12:18:44;;;;;;;7.75;1.20;;;19.20;99.90;;;;;;4943401;28;20365;-83
2022/09/09 12:21:30;;;;;;;8.45;1.77;;;19.00;99.90;;;;;;4935117;28;20691;-83
2022/09/09 12:24:09;;;;;;;7.38;1.70;;;18.80;99.90;;;;;;4958659;28;20035;-83
2022/09/09 12:26:46;;;;;;;3.88;1.55;;;18.80;99.90;;;;;;4941383;28;20078;-83
2022/09/09 12:29:24;;;;;;;5.78;1.80;;;18.20;99.90;;;;;;4943472;28;20033;-83
2022/09/09 12:32:00;;;;;;;5.85;1.90;;;18.00;99.90;;;;;;4942419;28;20031;-83
2022/09/09 12:34:38;;;;;;;5.28;1.65;;;18.20;99.90;;;;;;4942894;29;20035;-83
2022/09/09 12:37:35;;;;;;;4.00;1.40;;;18.40;99.90;;;;;;4943434;28;20246;-83
2022/09/09 12:40:24;;;;;;;4.55;1.60;;;18.70;99.90;;;;;;4926237;29;20032;-83
2022/09/09 12:42:51;;;;;;;5.75;1.58;;;18.90;99.90;;;;;;4942206;28;20493;-83
2022/09/09 12:45:21;;;;;;;4.07;1.40;;;18.90;99.90;;;;;;4934812;29;20035;-83
2022/09/09 12:48:11;;;;;;;3.80;1.33;;;18.90;99.90;;;;;;4940005;28;20097;-84
2022/09/09 12:50:49;;;;;;;5.03;1.15;;;18.90;99.90;;;;;;4933157;28;20094;-84
2022/09/09 12:53:31;;;;;;;4.85;1.30;;;19.20;99.90;;;;;;4951187;28;20055;-84
2022/09/09 12:56:03;;;;;;;5.25;1.38;;;19.40;99.90;;;;;;4937572;28;20058;-84
2022/09/09 12:58:33;;;;;;;4.97;1.60;;;19.80;99.90;;;;;;4940727;29;20376;-84
2022/09/09 13:01:00;;;;;;;3.92;1.10;;;19.90;99.90;;;;;;4938156;29;20031;-84
2022/09/09 13:03:26;;;;;;;2.55;1.33;;;19.50;99.90;;;;;;4943122;29;20038;-84
2022/09/09 13:05:58;;;;;;;4.65;1.10;;;19.30;99.90;;;;;;4943243;29;20118;-85
2022/09/09 13:08:24;;;;;;;4.33;1.27;;;19.80;99.90;;;;;;4946200;28;20039;-85
2022/09/09 13:10:59;;;;;;;4.60;1.50;;;20.30;99.90;;;;;;4961707;28;20137;-87